To NAV CANADA Home Page Login to a new session Search on AWWS site Disclaimer Vers la page française équivalente Tips FAQ What's new on the site To the Forecasts and Observations / NOTAM section To "File a Flight Plan" website Publications and other links Update of the User's profile FIC Telephone Numbers My Weather Data Folder Route Weather Data Regional Weather Data Local Weather Data To the Forecasts and Observations / NOTAM section
Request Generated 06/25/2018 at 09:35:42 UTC . Weather information available at that time is displayed.

METAR/TAF

If you find any discrepancies between the coded METAR/TAF and the plain language METAR/TAF please use the coded METAR/TAF. LWIS bulletins are not decoded in plain language.

LONDON/ON    

METAR CYXU 250900Z 02003KT 15SM FEW100 12/11 A3012 RMK AC1 AC TR SLP200=
METAR
LOCATION
CYXU - LONDON/ON
DATE - TIME
25 JUNE 2018 - 0900 UTC
WIND
20 TRUE @ 3  KNOTS
VISIBILITY
15 STAT.  MILES
RUNWAY VISUAL RANGE
WEATHER
CLOUDINESS
FEW CLOUDS (1/8 - 2/8) 10000  FT
TEMP / DEWPOINT
12 C / 11 C
ALTIMETER
30.12 IN HG
RECENT WEATHER
WIND SHEAR

METAR CYXU 250800Z 01005KT 15SM SKC 12/12 A3009 RMK SLP193=
METAR
LOCATION
CYXU - LONDON/ON
DATE - TIME
25 JUNE 2018 - 0800 UTC
WIND
10 TRUE @ 5  KNOTS
VISIBILITY
15 STAT.  MILES
RUNWAY VISUAL RANGE
WEATHER
CLOUDINESS
CLEAR SKY
TEMP / DEWPOINT
12 C / 12 C
ALTIMETER
30.09 IN HG
RECENT WEATHER
WIND SHEAR

METAR CYXU 250700Z 36004KT 15SM SKC 13/12 A3008 RMK SLP189=
METAR
LOCATION
CYXU - LONDON/ON
DATE - TIME
25 JUNE 2018 - 0700 UTC
WIND
360 TRUE @ 4  KNOTS
VISIBILITY
15 STAT.  MILES
RUNWAY VISUAL RANGE
WEATHER
CLOUDINESS
CLEAR SKY
TEMP / DEWPOINT
13 C / 12 C
ALTIMETER
30.08 IN HG
RECENT WEATHER
WIND SHEAR

TAF CYXU 250538Z 2506/2606 36005KT P6SM SKC FM251000 04008KT P6SM FEW030 TEMPO 2510/2512 5SM BR BECMG 2513/2515 04012KT FM251800 05008KT P6SM SKC BECMG 2602/2604 12007KT RMK NXT FCST BY 251200Z=
TAF
LOCATION

CYXU - LONDON/ON
VALIDITY [UTC]
25 JUN - 0538 to
26 JUN - 0600
 
TIMES
[UTC]
WIND
[DEGREES TRUE]
VISIBILITY
[STAT. MILES]
WEATHER
CLOUDINESS
[FEET AGL]
 
25 JUN - 0600 to
25 JUN - 1000
360 @ 5 KNOTS
6+
NIL
CLEAR SKY
 
25 JUN - 1000 to
25 JUN - 1800
40 @ 8 KNOTS
6+
NIL
3000 FEW
TEMPORARY CHANGES
25 JUN - 1000 to
25 JUN - 1200
 
5
MIST
 
BECOMING
25 JUN - 1300 to
25 JUN - 1500
40 @ 12 KNOTS
 
 
 
 
25 JUN - 1800 to
26 JUN - 0600
50 @ 8 KNOTS
6+
NIL
CLEAR SKY
BECOMING
26 JUN - 0200 to
26 JUN - 0400
120 @ 7 KNOTS
 
 
 
REMARKS
THE NEXT FORECAST WILL BE ISSUED BY 1200 UTC ON DAY 25


Your time UTC time
Weather data provided by Environment Canada and NAV CANADA